sensor_id;sensor_type;location;lat;lon;timestamp;P1;durP1;ratioP1;P2;durP2;ratioP2
38208;SDS011;24016;52.102;11.584;2023-11-19T00:00:26;27.10;;;16.17;;
38208;SDS011;24016;52.102;11.584;2023-11-19T00:02:51;21.98;;;12.85;;
38208;SDS011;24016;52.102;11.584;2023-11-19T00:05:17;22.95;;;12.60;;
38208;SDS011;24016;52.102;11.584;2023-11-19T00:07:43;23.38;;;13.02;;
38208;SDS011;24016;52.102;11.584;2023-11-19T00:10:10;20.60;;;13.07;;
38208;SDS011;24016;52.102;11.584;2023-11-19T00:12:37;25.90;;;12.68;;
38208;SDS011;24016;52.102;11.584;2023-11-19T00:15:04;17.95;;;12.75;;
38208;SDS011;24016;52.102;11.584;2023-11-19T00:17:31;17.35;;;11.00;;
38208;SDS011;24016;52.102;11.584;2023-11-19T00:19:57;16.05;;;11.13;;
38208;SDS011;24016;52.102;11.584;2023-11-19T00:22:22;16.50;;;10.05;;
38208;SDS011;24016;52.102;11.584;2023-11-19T00:24:48;17.42;;;10.15;;
38208;SDS011;24016;52.102;11.584;2023-11-19T00:27:13;16.15;;;9.88;;
38208;SDS011;24016;52.102;11.584;2023-11-19T00:29:39;17.60;;;10.90;;
38208;SDS011;24016;52.102;11.584;2023-11-19T00:32:05;14.93;;;9.23;;
38208;SDS011;24016;52.102;11.584;2023-11-19T00:34:32;15.38;;;8.45;;
38208;SDS011;24016;52.102;11.584;2023-11-19T00:36:58;14.38;;;9.30;;
38208;SDS011;24016;52.102;11.584;2023-11-19T00:39:23;12.63;;;8.00;;
38208;SDS011;24016;52.102;11.584;2023-11-19T00:41:49;13.25;;;8.70;;
38208;SDS011;24016;52.102;11.584;2023-11-19T00:44:14;14.50;;;8.63;;
38208;SDS011;24016;52.102;11.584;2023-11-19T00:46:40;12.18;;;8.40;;
38208;SDS011;24016;52.102;11.584;2023-11-19T00:49:05;12.70;;;7.80;;
38208;SDS011;24016;52.102;11.584;2023-11-19T00:51:31;13.07;;;8.23;;
38208;SDS011;24016;52.102;11.584;2023-11-19T00:53:57;12.15;;;8.35;;
38208;SDS011;24016;52.102;11.584;2023-11-19T00:56:24;11.48;;;8.05;;
38208;SDS011;24016;52.102;11.584;2023-11-19T00:58:49;11.30;;;7.47;;
38208;SDS011;24016;52.102;11.584;2023-11-19T01:01:15;9.57;;;6.45;;
38208;SDS011;24016;52.102;11.584;2023-11-19T01:03:40;10.25;;;6.60;;
38208;SDS011;24016;52.102;11.584;2023-11-19T01:06:06;11.00;;;6.95;;
38208;SDS011;24016;52.102;11.584;2023-11-19T01:08:33;9.07;;;6.85;;
38208;SDS011;24016;52.102;11.584;2023-11-19T01:11:00;9.43;;;7.05;;
38208;SDS011;24016;52.102;11.584;2023-11-19T01:13:27;9.50;;;6.13;;
38208;SDS011;24016;52.102;11.584;2023-11-19T01:15:52;8.73;;;5.90;;
38208;SDS011;24016;52.102;11.584;2023-11-19T01:18:18;9.63;;;6.35;;
38208;SDS011;24016;52.102;11.584;2023-11-19T01:20:44;8.73;;;6.60;;
38208;SDS011;24016;52.102;11.584;2023-11-19T01:23:09;10.45;;;5.93;;
38208;SDS011;24016;52.102;11.584;2023-11-19T01:25:35;9.18;;;5.68;;
38208;SDS011;24016;52.102;11.584;2023-11-19T01:28:02;12.30;;;5.85;;
38208;SDS011;24016;52.102;11.584;2023-11-19T01:30:27;7.47;;;5.28;;
38208;SDS011;24016;52.102;11.584;2023-11-19T01:32:53;8.13;;;5.50;;
38208;SDS011;24016;52.102;11.584;2023-11-19T01:35:18;8.02;;;5.50;;
38208;SDS011;24016;52.102;11.584;2023-11-19T01:37:44;7.45;;;5.38;;
38208;SDS011;24016;52.102;11.584;2023-11-19T01:40:10;7.38;;;5.28;;
38208;SDS011;24016;52.102;11.584;2023-11-19T01:42:37;7.65;;;5.20;;
38208;SDS011;24016;52.102;11.584;2023-11-19T01:45:03;7.25;;;5.10;;
38208;SDS011;24016;52.102;11.584;2023-11-19T01:47:33;6.22;;;4.57;;
38208;SDS011;24016;52.102;11.584;2023-11-19T01:49:59;6.43;;;5.03;;
38208;SDS011;24016;52.102;11.584;2023-11-19T01:52:26;7.15;;;4.63;;
38208;SDS011;24016;52.102;11.584;2023-11-19T01:54:52;7.05;;;5.00;;
38208;SDS011;24016;52.102;11.584;2023-11-19T01:57:19;6.85;;;4.55;;
38208;SDS011;24016;52.102;11.584;2023-11-19T01:59:48;5.68;;;4.28;;
38208;SDS011;24016;52.102;11.584;2023-11-19T02:02:15;6.50;;;4.10;;
38208;SDS011;24016;52.102;11.584;2023-11-19T02:04:45;6.45;;;4.55;;
38208;SDS011;24016;52.102;11.584;2023-11-19T02:07:14;5.07;;;4.10;;
38208;SDS011;24016;52.102;11.584;2023-11-19T02:09:42;6.20;;;4.05;;
38208;SDS011;24016;52.102;11.584;2023-11-19T02:12:08;4.78;;;4.13;;
38208;SDS011;24016;52.102;11.584;2023-11-19T02:14:36;5.38;;;3.95;;
38208;SDS011;24016;52.102;11.584;2023-11-19T02:17:02;5.15;;;3.58;;
38208;SDS011;24016;52.102;11.584;2023-11-19T02:19:28;5.45;;;3.85;;
38208;SDS011;24016;52.102;11.584;2023-11-19T02:21:54;6.85;;;4.00;;
38208;SDS011;24016;52.102;11.584;2023-11-19T02:24:20;4.07;;;3.40;;
38208;SDS011;24016;52.102;11.584;2023-11-19T02:29:35;6.03;;;4.00;;
38208;SDS011;24016;52.102;11.584;2023-11-19T02:32:01;6.63;;;3.88;;
38208;SDS011;24016;52.102;11.584;2023-11-19T02:34:28;4.82;;;3.70;;
38208;SDS011;24016;52.102;11.584;2023-11-19T02:36:57;4.95;;;3.60;;
38208;SDS011;24016;52.102;11.584;2023-11-19T02:39:23;4.45;;;3.47;;
38208;SDS011;24016;52.102;11.584;2023-11-19T02:41:48;5.20;;;3.80;;
38208;SDS011;24016;52.102;11.584;2023-11-19T02:44:18;5.68;;;3.90;;
38208;SDS011;24016;52.102;11.584;2023-11-19T02:46:44;5.72;;;4.05;;
38208;SDS011;24016;52.102;11.584;2023-11-19T02:49:09;4.93;;;3.67;;
38208;SDS011;24016;52.102;11.584;2023-11-19T02:51:46;5.43;;;3.70;;
38208;SDS011;24016;52.102;11.584;2023-11-19T02:54:12;5.70;;;4.00;;
38208;SDS011;24016;52.102;11.584;2023-11-19T02:56:42;4.78;;;3.75;;
38208;SDS011;24016;52.102;11.584;2023-11-19T02:59:08;6.68;;;3.80;;
38208;SDS011;24016;52.102;11.584;2023-11-19T03:01:43;5.50;;;3.58;;
38208;SDS011;24016;52.102;11.584;2023-11-19T03:04:13;5.85;;;3.45;;
38208;SDS011;24016;52.102;11.584;2023-11-19T03:06:42;5.45;;;3.63;;
38208;SDS011;24016;52.102;11.584;2023-11-19T03:09:07;5.65;;;3.47;;
38208;SDS011;24016;52.102;11.584;2023-11-19T03:11:35;5.63;;;3.33;;
38208;SDS011;24016;52.102;11.584;2023-11-19T03:14:01;5.15;;;3.30;;
38208;SDS011;24016;52.102;11.584;2023-11-19T03:16:28;5.38;;;3.80;;
38208;SDS011;24016;52.102;11.584;2023-11-19T03:18:53;5.82;;;3.95;;
38208;SDS011;24016;52.102;11.584;2023-11-19T03:21:19;6.35;;;4.63;;
38208;SDS011;24016;52.102;11.584;2023-11-19T03:23:44;7.63;;;4.30;;
38208;SDS011;24016;52.102;11.584;2023-11-19T03:26:10;9.27;;;4.85;;
38208;SDS011;24016;52.102;11.584;2023-11-19T03:28:36;6.57;;;4.18;;
38208;SDS011;24016;52.102;11.584;2023-11-19T03:31:04;9.55;;;4.50;;
38208;SDS011;24016;52.102;11.584;2023-11-19T03:33:33;6.80;;;4.60;;
38208;SDS011;24016;52.102;11.584;2023-11-19T03:35:59;6.70;;;4.90;;
38208;SDS011;24016;52.102;11.584;2023-11-19T03:38:24;7.40;;;4.38;;
38208;SDS011;24016;52.102;11.584;2023-11-19T03:40:50;7.93;;;4.75;;
38208;SDS011;24016;52.102;11.584;2023-11-19T03:43:16;6.60;;;5.15;;
38208;SDS011;24016;52.102;11.584;2023-11-19T03:45:41;7.82;;;5.10;;
38208;SDS011;24016;52.102;11.584;2023-11-19T03:48:07;7.10;;;4.53;;
38208;SDS011;24016;52.102;11.584;2023-11-19T03:50:32;6.97;;;4.57;;
38208;SDS011;24016;52.102;11.584;2023-11-19T03:52:58;5.78;;;4.28;;
38208;SDS011;24016;52.102;11.584;2023-11-19T03:55:24;7.07;;;4.63;;
38208;SDS011;24016;52.102;11.584;2023-11-19T03:57:49;6.72;;;4.38;;
38208;SDS011;24016;52.102;11.584;2023-11-19T04:00:15;7.28;;;4.90;;
38208;SDS011;24016;52.102;11.584;2023-11-19T04:02:41;6.75;;;4.40;;
38208;SDS011;24016;52.102;11.584;2023-11-19T04:05:06;5.60;;;4.07;;
38208;SDS011;24016;52.102;11.584;2023-11-19T04:07:32;6.15;;;4.35;;
38208;SDS011;24016;52.102;11.584;2023-11-19T04:09:58;7.78;;;4.18;;
38208;SDS011;24016;52.102;11.584;2023-11-19T04:12:24;6.38;;;3.80;;
38208;SDS011;24016;52.102;11.584;2023-11-19T04:14:49;6.13;;;3.97;;
38208;SDS011;24016;52.102;11.584;2023-11-19T04:17:15;10.27;;;4.65;;
38208;SDS011;24016;52.102;11.584;2023-11-19T04:19:40;8.02;;;4.28;;
38208;SDS011;24016;52.102;11.584;2023-11-19T04:22:09;6.07;;;3.70;;
38208;SDS011;24016;52.102;11.584;2023-11-19T04:24:35;4.70;;;3.42;;
38208;SDS011;24016;52.102;11.584;2023-11-19T04:27:01;9.02;;;3.95;;
38208;SDS011;24016;52.102;11.584;2023-11-19T04:29:27;5.72;;;3.25;;
38208;SDS011;24016;52.102;11.584;2023-11-19T04:31:52;6.03;;;3.60;;
38208;SDS011;24016;52.102;11.584;2023-11-19T04:34:18;7.68;;;3.38;;
38208;SDS011;24016;52.102;11.584;2023-11-19T04:36:43;4.72;;;3.20;;
38208;SDS011;24016;52.102;11.584;2023-11-19T04:39:09;7.28;;;3.38;;
38208;SDS011;24016;52.102;11.584;2023-11-19T04:41:48;4.53;;;3.20;;
38208;SDS011;24016;52.102;11.584;2023-11-19T04:44:15;5.47;;;3.10;;
38208;SDS011;24016;52.102;11.584;2023-11-19T04:46:41;5.07;;;2.78;;
38208;SDS011;24016;52.102;11.584;2023-11-19T04:49:10;5.85;;;3.72;;
38208;SDS011;24016;52.102;11.584;2023-11-19T04:51:43;5.22;;;3.25;;
38208;SDS011;24016;52.102;11.584;2023-11-19T04:54:09;3.90;;;2.85;;
38208;SDS011;24016;52.102;11.584;2023-11-19T04:56:35;4.25;;;2.97;;
38208;SDS011;24016;52.102;11.584;2023-11-19T04:59:05;3.60;;;2.75;;
38208;SDS011;24016;52.102;11.584;2023-11-19T05:01:31;3.33;;;2.47;;
38208;SDS011;24016;52.102;11.584;2023-11-19T05:03:58;4.32;;;2.72;;
38208;SDS011;24016;52.102;11.584;2023-11-19T05:06:30;2.63;;;1.98;;
38208;SDS011;24016;52.102;11.584;2023-11-19T05:08:59;1.92;;;1.58;;
38208;SDS011;24016;52.102;11.584;2023-11-19T05:11:34;2.28;;;1.30;;
38208;SDS011;24016;52.102;11.584;2023-11-19T05:14:01;3.10;;;1.35;;
38208;SDS011;24016;52.102;11.584;2023-11-19T05:16:29;1.95;;;1.40;;
38208;SDS011;24016;52.102;11.584;2023-11-19T05:18:54;2.13;;;1.30;;
38208;SDS011;24016;52.102;11.584;2023-11-19T05:21:20;2.45;;;1.30;;
38208;SDS011;24016;52.102;11.584;2023-11-19T05:23:46;0.60;;;0.60;;
38208;SDS011;24016;52.102;11.584;2023-11-19T05:26:17;0.93;;;0.70;;
38208;SDS011;24016;52.102;11.584;2023-11-19T05:28:43;0.70;;;0.60;;
38208;SDS011;24016;52.102;11.584;2023-11-19T05:31:09;1.17;;;0.85;;
38208;SDS011;24016;52.102;11.584;2023-11-19T05:33:35;1.92;;;0.73;;
38208;SDS011;24016;52.102;11.584;2023-11-19T05:36:00;0.70;;;0.70;;
38208;SDS011;24016;52.102;11.584;2023-11-19T05:38:28;0.82;;;0.60;;
38208;SDS011;24016;52.102;11.584;2023-11-19T05:40:54;1.27;;;0.70;;
38208;SDS011;24016;52.102;11.584;2023-11-19T05:43:19;0.70;;;0.70;;
38208;SDS011;24016;52.102;11.584;2023-11-19T05:45:46;0.63;;;0.63;;
38208;SDS011;24016;52.102;11.584;2023-11-19T05:48:11;0.80;;;0.70;;
38208;SDS011;24016;52.102;11.584;2023-11-19T05:50:37;0.95;;;0.70;;
38208;SDS011;24016;52.102;11.584;2023-11-19T05:53:03;1.17;;;0.75;;
38208;SDS011;24016;52.102;11.584;2023-11-19T05:55:35;1.77;;;0.80;;
38208;SDS011;24016;52.102;11.584;2023-11-19T05:58:02;1.23;;;0.90;;
38208;SDS011;24016;52.102;11.584;2023-11-19T06:00:29;1.15;;;1.00;;
38208;SDS011;24016;52.102;11.584;2023-11-19T06:02:55;1.30;;;1.20;;
38208;SDS011;24016;52.102;11.584;2023-11-19T06:05:21;1.30;;;0.98;;
38208;SDS011;24016;52.102;11.584;2023-11-19T06:07:46;1.73;;;1.02;;
38208;SDS011;24016;52.102;11.584;2023-11-19T06:10:12;5.45;;;0.90;;
38208;SDS011;24016;52.102;11.584;2023-11-19T06:12:41;1.00;;;0.80;;
38208;SDS011;24016;52.102;11.584;2023-11-19T06:15:07;1.75;;;1.00;;
38208;SDS011;24016;52.102;11.584;2023-11-19T06:17:34;1.30;;;1.00;;
38208;SDS011;24016;52.102;11.584;2023-11-19T06:19:59;1.10;;;0.90;;
38208;SDS011;24016;52.102;11.584;2023-11-19T06:22:25;1.50;;;0.90;;
38208;SDS011;24016;52.102;11.584;2023-11-19T06:24:50;0.85;;;0.85;;
38208;SDS011;24016;52.102;11.584;2023-11-19T06:27:16;1.10;;;0.93;;
38208;SDS011;24016;52.102;11.584;2023-11-19T06:29:42;1.15;;;0.77;;
38208;SDS011;24016;52.102;11.584;2023-11-19T06:32:07;1.15;;;0.75;;
38208;SDS011;24016;52.102;11.584;2023-11-19T06:34:33;1.02;;;0.77;;
38208;SDS011;24016;52.102;11.584;2023-11-19T06:36:59;0.65;;;0.65;;
38208;SDS011;24016;52.102;11.584;2023-11-19T06:39:25;2.42;;;0.75;;
38208;SDS011;24016;52.102;11.584;2023-11-19T06:41:50;0.80;;;0.70;;
38208;SDS011;24016;52.102;11.584;2023-11-19T06:44:16;0.93;;;0.80;;
38208;SDS011;24016;52.102;11.584;2023-11-19T06:46:42;0.52;;;0.52;;
38208;SDS011;24016;52.102;11.584;2023-11-19T06:49:08;1.95;;;0.80;;
38208;SDS011;24016;52.102;11.584;2023-11-19T06:51:34;1.27;;;0.82;;
38208;SDS011;24016;52.102;11.584;2023-11-19T06:53:59;1.15;;;0.80;;
38208;SDS011;24016;52.102;11.584;2023-11-19T06:56:25;2.22;;;0.75;;
38208;SDS011;24016;52.102;11.584;2023-11-19T06:58:51;2.67;;;0.90;;
38208;SDS011;24016;52.102;11.584;2023-11-19T07:01:18;0.75;;;0.70;;
38208;SDS011;24016;52.102;11.584;2023-11-19T07:03:45;1.60;;;1.10;;
38208;SDS011;24016;52.102;11.584;2023-11-19T07:06:11;1.75;;;1.23;;
38208;SDS011;24016;52.102;11.584;2023-11-19T07:08:40;2.08;;;1.50;;
38208;SDS011;24016;52.102;11.584;2023-11-19T07:11:07;2.17;;;1.40;;
38208;SDS011;24016;52.102;11.584;2023-11-19T07:13:34;3.60;;;1.50;;
38208;SDS011;24016;52.102;11.584;2023-11-19T07:16:00;1.85;;;1.30;;
38208;SDS011;24016;52.102;11.584;2023-11-19T07:18:26;2.78;;;1.30;;
38208;SDS011;24016;52.102;11.584;2023-11-19T07:20:51;1.73;;;1.20;;
38208;SDS011;24016;52.102;11.584;2023-11-19T07:23:18;1.42;;;1.10;;
38208;SDS011;24016;52.102;11.584;2023-11-19T07:25:43;5.10;;;1.38;;
38208;SDS011;24016;52.102;11.584;2023-11-19T07:28:11;3.17;;;1.20;;
38208;SDS011;24016;52.102;11.584;2023-11-19T07:30:41;4.28;;;1.45;;
38208;SDS011;24016;52.102;11.584;2023-11-19T07:33:07;2.70;;;1.67;;
38208;SDS011;24016;52.102;11.584;2023-11-19T07:35:33;3.95;;;1.48;;
38208;SDS011;24016;52.102;11.584;2023-11-19T07:37:59;2.60;;;1.55;;
38208;SDS011;24016;52.102;11.584;2023-11-19T07:40:24;4.60;;;1.60;;
38208;SDS011;24016;52.102;11.584;2023-11-19T07:42:50;4.65;;;1.90;;
38208;SDS011;24016;52.102;11.584;2023-11-19T07:45:16;3.58;;;1.85;;
38208;SDS011;24016;52.102;11.584;2023-11-19T07:47:42;2.58;;;1.70;;
38208;SDS011;24016;52.102;11.584;2023-11-19T07:50:09;6.47;;;1.92;;
38208;SDS011;24016;52.102;11.584;2023-11-19T07:52:35;8.68;;;2.50;;
38208;SDS011;24016;52.102;11.584;2023-11-19T07:55:02;8.07;;;2.20;;
38208;SDS011;24016;52.102;11.584;2023-11-19T07:57:27;9.18;;;2.75;;
38208;SDS011;24016;52.102;11.584;2023-11-19T07:59:55;7.00;;;2.80;;
38208;SDS011;24016;52.102;11.584;2023-11-19T08:02:21;7.22;;;2.63;;
38208;SDS011;24016;52.102;11.584;2023-11-19T08:04:48;13.02;;;3.30;;
38208;SDS011;24016;52.102;11.584;2023-11-19T08:07:16;7.32;;;2.55;;
38208;SDS011;24016;52.102;11.584;2023-11-19T08:09:43;5.55;;;2.70;;
38208;SDS011;24016;52.102;11.584;2023-11-19T08:12:08;9.30;;;3.17;;
38208;SDS011;24016;52.102;11.584;2023-11-19T08:14:34;8.13;;;2.92;;
38208;SDS011;24016;52.102;11.584;2023-11-19T08:17:00;7.25;;;2.10;;
38208;SDS011;24016;52.102;11.584;2023-11-19T08:19:26;11.02;;;2.60;;
38208;SDS011;24016;52.102;11.584;2023-11-19T08:21:51;6.63;;;2.22;;
38208;SDS011;24016;52.102;11.584;2023-11-19T08:24:17;10.05;;;2.22;;
38208;SDS011;24016;52.102;11.584;2023-11-19T08:26:43;6.65;;;2.10;;
38208;SDS011;24016;52.102;11.584;2023-11-19T08:29:08;7.25;;;2.10;;
38208;SDS011;24016;52.102;11.584;2023-11-19T08:31:34;6.20;;;1.75;;
38208;SDS011;24016;52.102;11.584;2023-11-19T08:34:00;5.20;;;2.00;;
38208;SDS011;24016;52.102;11.584;2023-11-19T08:36:26;5.38;;;1.50;;
38208;SDS011;24016;52.102;11.584;2023-11-19T08:38:52;7.30;;;2.38;;
38208;SDS011;24016;52.102;11.584;2023-11-19T08:41:19;5.07;;;1.80;;
38208;SDS011;24016;52.102;11.584;2023-11-19T08:43:45;5.65;;;2.00;;
38208;SDS011;24016;52.102;11.584;2023-11-19T08:46:11;4.35;;;1.77;;
38208;SDS011;24016;52.102;11.584;2023-11-19T08:48:37;5.32;;;1.77;;
38208;SDS011;24016;52.102;11.584;2023-11-19T08:51:03;6.68;;;1.83;;
38208;SDS011;24016;52.102;11.584;2023-11-19T08:53:29;6.20;;;1.73;;
38208;SDS011;24016;52.102;11.584;2023-11-19T08:55:55;8.18;;;1.90;;
38208;SDS011;24016;52.102;11.584;2023-11-19T08:58:21;6.78;;;1.85;;
38208;SDS011;24016;52.102;11.584;2023-11-19T09:00:46;6.45;;;1.88;;
38208;SDS011;24016;52.102;11.584;2023-11-19T09:03:12;5.53;;;2.00;;
38208;SDS011;24016;52.102;11.584;2023-11-19T09:05:37;5.60;;;1.70;;
38208;SDS011;24016;52.102;11.584;2023-11-19T09:08:04;8.35;;;2.13;;
38208;SDS011;24016;52.102;11.584;2023-11-19T09:10:29;9.07;;;2.40;;
38208;SDS011;24016;52.102;11.584;2023-11-19T09:12:55;8.95;;;1.90;;
38208;SDS011;24016;52.102;11.584;2023-11-19T09:15:20;11.07;;;2.45;;
38208;SDS011;24016;52.102;11.584;2023-11-19T09:17:46;6.72;;;2.65;;
38208;SDS011;24016;52.102;11.584;2023-11-19T09:20:11;11.57;;;2.53;;
38208;SDS011;24016;52.102;11.584;2023-11-19T09:22:40;11.50;;;2.42;;
38208;SDS011;24016;52.102;11.584;2023-11-19T09:25:08;12.25;;;3.22;;
38208;SDS011;24016;52.102;11.584;2023-11-19T09:27:34;7.15;;;2.50;;
38208;SDS011;24016;52.102;11.584;2023-11-19T09:30:00;6.30;;;2.25;;
38208;SDS011;24016;52.102;11.584;2023-11-19T09:32:25;8.68;;;2.33;;
38208;SDS011;24016;52.102;11.584;2023-11-19T09:34:51;13.00;;;3.58;;
38208;SDS011;24016;52.102;11.584;2023-11-19T09:37:16;10.93;;;3.28;;
38208;SDS011;24016;52.102;11.584;2023-11-19T09:39:42;7.72;;;2.88;;
38208;SDS011;24016;52.102;11.584;2023-11-19T09:42:11;11.93;;;2.70;;
38208;SDS011;24016;52.102;11.584;2023-11-19T09:44:37;14.25;;;3.08;;
38208;SDS011;24016;52.102;11.584;2023-11-19T09:47:07;9.63;;;3.20;;
38208;SDS011;24016;52.102;11.584;2023-11-19T09:49:33;8.63;;;2.70;;
38208;SDS011;24016;52.102;11.584;2023-11-19T09:52:01;9.93;;;3.10;;
38208;SDS011;24016;52.102;11.584;2023-11-19T09:54:28;13.65;;;3.00;;
38208;SDS011;24016;52.102;11.584;2023-11-19T09:56:54;9.48;;;3.70;;
38208;SDS011;24016;52.102;11.584;2023-11-19T09:59:25;12.18;;;2.92;;
38208;SDS011;24016;52.102;11.584;2023-11-19T10:01:51;13.75;;;3.47;;
38208;SDS011;24016;52.102;11.584;2023-11-19T10:04:17;12.57;;;3.10;;
38208;SDS011;24016;52.102;11.584;2023-11-19T10:06:44;11.35;;;2.75;;
38208;SDS011;24016;52.102;11.584;2023-11-19T10:09:11;13.93;;;3.30;;
38208;SDS011;24016;52.102;11.584;2023-11-19T10:11:38;13.95;;;3.00;;
38208;SDS011;24016;52.102;11.584;2023-11-19T10:14:03;9.50;;;3.55;;
38208;SDS011;24016;52.102;11.584;2023-11-19T10:16:29;11.00;;;3.25;;
38208;SDS011;24016;52.102;11.584;2023-11-19T10:18:58;11.15;;;2.80;;
38208;SDS011;24016;52.102;11.584;2023-11-19T10:21:24;12.75;;;3.35;;
38208;SDS011;24016;52.102;11.584;2023-11-19T10:23:50;16.45;;;3.25;;
38208;SDS011;24016;52.102;11.584;2023-11-19T10:26:17;15.52;;;3.13;;
38208;SDS011;24016;52.102;11.584;2023-11-19T10:28:45;10.43;;;3.10;;
38208;SDS011;24016;52.102;11.584;2023-11-19T10:31:12;13.30;;;3.40;;
38208;SDS011;24016;52.102;11.584;2023-11-19T10:33:38;12.18;;;3.42;;
38208;SDS011;24016;52.102;11.584;2023-11-19T10:36:04;10.43;;;2.83;;
38208;SDS011;24016;52.102;11.584;2023-11-19T10:38:30;16.25;;;3.53;;
38208;SDS011;24016;52.102;11.584;2023-11-19T10:40:56;15.85;;;3.30;;
38208;SDS011;24016;52.102;11.584;2023-11-19T10:43:22;15.00;;;3.13;;
38208;SDS011;24016;52.102;11.584;2023-11-19T10:45:48;14.93;;;3.67;;
38208;SDS011;24016;52.102;11.584;2023-11-19T10:48:14;11.88;;;3.17;;
38208;SDS011;24016;52.102;11.584;2023-11-19T10:50:41;16.42;;;3.35;;
38208;SDS011;24016;52.102;11.584;2023-11-19T10:53:08;13.20;;;3.60;;
38208;SDS011;24016;52.102;11.584;2023-11-19T10:55:38;17.08;;;3.83;;
38208;SDS011;24016;52.102;11.584;2023-11-19T10:58:04;13.45;;;3.55;;
38208;SDS011;24016;52.102;11.584;2023-11-19T11:00:54;11.55;;;3.05;;
38208;SDS011;24016;52.102;11.584;2023-11-19T11:03:19;15.10;;;3.92;;
38208;SDS011;24016;52.102;11.584;2023-11-19T11:05:49;13.18;;;3.72;;
38208;SDS011;24016;52.102;11.584;2023-11-19T11:08:16;11.80;;;3.05;;
38208;SDS011;24016;52.102;11.584;2023-11-19T11:10:43;13.27;;;2.85;;
38208;SDS011;24016;52.102;11.584;2023-11-19T11:13:10;10.35;;;2.88;;
38208;SDS011;24016;52.102;11.584;2023-11-19T11:15:38;12.70;;;3.38;;
38208;SDS011;24016;52.102;11.584;2023-11-19T11:18:04;13.98;;;2.97;;
38208;SDS011;24016;52.102;11.584;2023-11-19T11:20:33;13.50;;;3.38;;
38208;SDS011;24016;52.102;11.584;2023-11-19T11:29:10;13.60;;;3.03;;
38208;SDS011;24016;52.102;11.584;2023-11-19T11:37:39;15.15;;;3.28;;
38208;SDS011;24016;52.102;11.584;2023-11-19T11:40:16;11.75;;;2.80;;
38208;SDS011;24016;52.102;11.584;2023-11-19T11:42:43;9.05;;;2.45;;
38208;SDS011;24016;52.102;11.584;2023-11-19T11:45:10;12.02;;;2.78;;
38208;SDS011;24016;52.102;11.584;2023-11-19T11:50:16;10.02;;;2.65;;
38208;SDS011;24016;52.102;11.584;2023-11-19T11:55:26;10.85;;;2.60;;
38208;SDS011;24016;52.102;11.584;2023-11-19T11:58:02;9.25;;;2.22;;
38208;SDS011;24016;52.102;11.584;2023-11-19T12:00:29;12.25;;;3.65;;
38208;SDS011;24016;52.102;11.584;2023-11-19T12:03:04;12.75;;;3.03;;
38208;SDS011;24016;52.102;11.584;2023-11-19T12:05:30;11.70;;;2.92;;
38208;SDS011;24016;52.102;11.584;2023-11-19T12:08:02;15.05;;;3.35;;
38208;SDS011;24016;52.102;11.584;2023-11-19T12:10:43;9.90;;;2.50;;
38208;SDS011;24016;52.102;11.584;2023-11-19T12:18:27;14.73;;;3.10;;
38208;SDS011;24016;52.102;11.584;2023-11-19T12:20:57;11.52;;;3.17;;
38208;SDS011;24016;52.102;11.584;2023-11-19T12:23:27;11.88;;;2.83;;
38208;SDS011;24016;52.102;11.584;2023-11-19T12:25:54;13.15;;;3.00;;
38208;SDS011;24016;52.102;11.584;2023-11-19T12:28:21;10.23;;;2.45;;
38208;SDS011;24016;52.102;11.584;2023-11-19T12:30:47;10.88;;;3.05;;
38208;SDS011;24016;52.102;11.584;2023-11-19T12:33:13;11.55;;;2.85;;
38208;SDS011;24016;52.102;11.584;2023-11-19T12:35:40;10.68;;;2.70;;
38208;SDS011;24016;52.102;11.584;2023-11-19T12:38:07;10.65;;;2.72;;
38208;SDS011;24016;52.102;11.584;2023-11-19T12:40:33;11.90;;;2.65;;
38208;SDS011;24016;52.102;11.584;2023-11-19T12:42:59;10.10;;;2.83;;
38208;SDS011;24016;52.102;11.584;2023-11-19T12:45:34;15.73;;;3.30;;
38208;SDS011;24016;52.102;11.584;2023-11-19T12:48:04;11.38;;;2.83;;
38208;SDS011;24016;52.102;11.584;2023-11-19T12:50:31;16.35;;;3.47;;
38208;SDS011;24016;52.102;11.584;2023-11-19T12:53:18;13.68;;;2.90;;
38208;SDS011;24016;52.102;11.584;2023-11-19T12:55:48;11.75;;;3.05;;
38208;SDS011;24016;52.102;11.584;2023-11-19T13:01:02;14.25;;;3.30;;
38208;SDS011;24016;52.102;11.584;2023-11-19T13:03:33;15.05;;;3.55;;
38208;SDS011;24016;52.102;11.584;2023-11-19T13:11:03;12.10;;;3.13;;
38208;SDS011;24016;52.102;11.584;2023-11-19T13:13:31;16.48;;;3.90;;
38208;SDS011;24016;52.102;11.584;2023-11-19T13:16:04;11.20;;;3.25;;
38208;SDS011;24016;52.102;11.584;2023-11-19T13:18:34;15.57;;;4.15;;
38208;SDS011;24016;52.102;11.584;2023-11-19T13:21:00;11.55;;;3.28;;
38208;SDS011;24016;52.102;11.584;2023-11-19T13:23:26;11.50;;;3.42;;
38208;SDS011;24016;52.102;11.584;2023-11-19T13:25:51;15.00;;;3.72;;
38208;SDS011;24016;52.102;11.584;2023-11-19T13:28:17;16.35;;;3.80;;
38208;SDS011;24016;52.102;11.584;2023-11-19T13:30:43;15.50;;;3.92;;
38208;SDS011;24016;52.102;11.584;2023-11-19T13:33:09;17.65;;;4.30;;
38208;SDS011;24016;52.102;11.584;2023-11-19T13:35:37;17.75;;;3.90;;
38208;SDS011;24016;52.102;11.584;2023-11-19T13:38:05;18.98;;;3.55;;
38208;SDS011;24016;52.102;11.584;2023-11-19T13:40:33;14.18;;;3.65;;
38208;SDS011;24016;52.102;11.584;2023-11-19T13:42:59;11.48;;;3.28;;
38208;SDS011;24016;52.102;11.584;2023-11-19T13:45:25;16.05;;;3.08;;
38208;SDS011;24016;52.102;11.584;2023-11-19T13:47:51;15.65;;;3.15;;
38208;SDS011;24016;52.102;11.584;2023-11-19T13:50:17;9.73;;;3.05;;
38208;SDS011;24016;52.102;11.584;2023-11-19T13:52:43;13.48;;;3.50;;
38208;SDS011;24016;52.102;11.584;2023-11-19T13:55:11;17.30;;;3.55;;
38208;SDS011;24016;52.102;11.584;2023-11-19T13:57:40;11.05;;;3.00;;
38208;SDS011;24016;52.102;11.584;2023-11-19T14:00:10;21.20;;;4.40;;
38208;SDS011;24016;52.102;11.584;2023-11-19T14:02:40;16.55;;;3.58;;
38208;SDS011;24016;52.102;11.584;2023-11-19T14:05:07;14.73;;;3.40;;
38208;SDS011;24016;52.102;11.584;2023-11-19T14:07:33;12.48;;;3.17;;
38208;SDS011;24016;52.102;11.584;2023-11-19T14:09:59;10.93;;;3.15;;
38208;SDS011;24016;52.102;11.584;2023-11-19T14:12:24;17.20;;;3.92;;
38208;SDS011;24016;52.102;11.584;2023-11-19T14:14:50;17.02;;;3.58;;
38208;SDS011;24016;52.102;11.584;2023-11-19T14:17:16;13.00;;;3.20;;
38208;SDS011;24016;52.102;11.584;2023-11-19T14:19:42;11.25;;;3.58;;
38208;SDS011;24016;52.102;11.584;2023-11-19T14:22:08;14.77;;;2.90;;
38208;SDS011;24016;52.102;11.584;2023-11-19T14:24:34;12.07;;;2.83;;
38208;SDS011;24016;52.102;11.584;2023-11-19T14:27:00;13.07;;;3.08;;
38208;SDS011;24016;52.102;11.584;2023-11-19T14:29:26;15.13;;;3.28;;
38208;SDS011;24016;52.102;11.584;2023-11-19T14:31:54;13.50;;;2.83;;
38208;SDS011;24016;52.102;11.584;2023-11-19T14:34:20;13.45;;;4.05;;
38208;SDS011;24016;52.102;11.584;2023-11-19T14:36:46;12.25;;;3.13;;
38208;SDS011;24016;52.102;11.584;2023-11-19T14:39:12;15.13;;;3.30;;
38208;SDS011;24016;52.102;11.584;2023-11-19T14:41:38;16.08;;;3.40;;
38208;SDS011;24016;52.102;11.584;2023-11-19T14:44:04;16.00;;;3.50;;
38208;SDS011;24016;52.102;11.584;2023-11-19T14:46:30;13.02;;;3.35;;
38208;SDS011;24016;52.102;11.584;2023-11-19T14:48:56;13.95;;;3.25;;
38208;SDS011;24016;52.102;11.584;2023-11-19T14:51:22;17.73;;;4.22;;
38208;SDS011;24016;52.102;11.584;2023-11-19T14:53:47;18.77;;;4.07;;
38208;SDS011;24016;52.102;11.584;2023-11-19T14:56:13;14.68;;;3.42;;
38208;SDS011;24016;52.102;11.584;2023-11-19T14:58:39;13.98;;;3.83;;